メインページ
METAR-TAF:

METAR-TAF

空港 :

Nowshahr, イラン

緯度: 36-39-48N, 経度: 051-27-53E, 海抜: 0m

現時点の気象観測

当レポートは52分前の05:00(UTC)に作成
無風
気温 11°C
湿度 71%
気圧 1021 hPa
視程10km以上
高度2800ftの雲はほとんどない
高度20000ftの千切れ雲あり

METAR: OINN 210500Z 00000KT 9999 FEW028 BKN200 11/06 Q1021

時間: 09:22 (05:52 UTC)


TAF: 見つかりません

4,000以上の空港の気象観測と天気予報(METAR報とTAF報)

利用可能な観測所は地図上に黄色い丸と赤い丸で示す。

丸の上にカーソルを重ねると観測所名を参照できる。

次にクリックすると気象観測と天気予報を参照できる。

マップの切り替え:黒色「×」印の緑ボタンをクリックして拡大、「-」印の緑ボタンをクリックして縮小、緑色の三角印をクリックして隣りの地図に切り替え


METAR-TAF: